createdAt,value
2018-12-05T00:01:22.046Z,92.20
2018-12-05T00:03:52.517Z,92.00
2018-12-05T00:06:22.930Z,91.80
2018-12-05T00:11:33.967Z,91.40
2018-12-05T00:14:04.599Z,91.40
2018-12-05T00:16:35.313Z,91.40
2018-12-05T00:19:06.403Z,91.40
2018-12-05T00:21:38.628Z,91.20
2018-12-05T00:24:11.988Z,91.40
2018-12-05T00:26:45.168Z,91.50
2018-12-05T00:29:16.079Z,91.40
2018-12-05T00:31:53.520Z,91.50
2018-12-05T00:34:25.364Z,91.80
2018-12-05T00:36:56.414Z,91.90
2018-12-05T00:39:28.833Z,91.90
2018-12-05T00:42:00.630Z,91.90
2018-12-05T00:44:33.552Z,91.90
2018-12-05T00:47:04.718Z,92.00
2018-12-05T00:49:36.033Z,92.20
2018-12-05T00:52:07.150Z,92.30
2018-12-05T00:54:38.986Z,92.20
2018-12-05T00:57:12.650Z,92.30
2018-12-05T00:59:43.407Z,92.20
2018-12-05T01:02:14.121Z,91.80
2018-12-05T01:04:49.481Z,91.90
2018-12-05T01:07:25.015Z,91.90
2018-12-05T01:09:58.430Z,91.80
2018-12-05T01:12:30.073Z,91.60
2018-12-05T01:15:01.231Z,92.10
2018-12-05T01:17:32.029Z,92.60
2018-12-05T01:20:02.799Z,92.90
2018-12-05T01:22:33.556Z,92.80
2018-12-05T01:25:07.963Z,92.60
2018-12-05T01:27:39.376Z,92.80
2018-12-05T01:30:10.288Z,92.80
2018-12-05T01:32:40.844Z,92.60
2018-12-05T01:35:11.487Z,92.40
2018-12-05T01:37:41.828Z,91.50
2018-12-05T01:40:12.919Z,91.70
2018-12-05T01:42:43.400Z,92.00
2018-12-05T01:45:14.114Z,92.30
2018-12-05T01:47:44.634Z,93.00
2018-12-05T01:50:15.460Z,93.00
2018-12-05T01:52:46.797Z,92.90
2018-12-05T01:55:17.635Z,93.00
2018-12-05T01:57:48.389Z,92.80
2018-12-05T02:00:19.176Z,92.50
2018-12-05T02:02:49.789Z,92.20
2018-12-05T02:05:20.177Z,91.50
2018-12-05T02:07:50.668Z,91.90
2018-12-05T02:10:22.323Z,92.10
2018-12-05T02:12:53.387Z,92.40
2018-12-05T02:15:25.889Z,92.60
2018-12-05T02:20:44.160Z,92.70
2018-12-05T02:23:16.509Z,92.20
2018-12-05T02:25:46.954Z,92.60
2018-12-05T02:28:17.980Z,92.80
2018-12-05T02:30:48.750Z,93.10
2018-12-05T02:33:19.924Z,93.40
2018-12-05T02:35:53.297Z,93.40
2018-12-05T02:38:25.268Z,93.50
2018-12-05T02:40:56.406Z,93.70
2018-12-05T02:43:27.348Z,93.80
2018-12-05T02:45:58.610Z,94.00
2018-12-05T02:48:30.386Z,93.40
2018-12-05T02:51:01.124Z,93.40
2018-12-05T02:53:31.786Z,93.40
2018-12-05T02:56:03.042Z,93.70
2018-12-05T02:58:33.786Z,94.00
2018-12-05T03:01:05.294Z,94.20
2018-12-05T03:03:36.685Z,94.30
2018-12-05T03:06:07.378Z,94.20
2018-12-05T03:08:37.980Z,93.90
2018-12-05T03:11:09.296Z,94.00
2018-12-05T03:13:39.933Z,94.10
2018-12-05T03:16:11.858Z,94.40
2018-12-05T03:18:44.162Z,94.00
2018-12-05T03:21:14.812Z,94.00
2018-12-05T03:23:46.441Z,94.00
2018-12-05T03:26:17.561Z,94.20
2018-12-05T03:28:48.467Z,94.10
2018-12-05T03:31:18.914Z,94.20
2018-12-05T03:33:49.272Z,94.40
2018-12-05T03:36:20.005Z,94.50
2018-12-05T03:38:50.507Z,94.50
2018-12-05T03:41:21.400Z,94.40
2018-12-05T03:43:52.100Z,94.30
2018-12-05T03:46:22.825Z,93.80
2018-12-05T03:48:53.345Z,93.10
2018-12-05T03:51:24.571Z,92.40
2018-12-05T03:53:55.143Z,92.10
2018-12-05T03:56:26.467Z,92.00
2018-12-05T03:58:57.531Z,91.80
2018-12-05T04:01:28.246Z,91.20
2018-12-05T04:03:58.845Z,91.20
2018-12-05T04:06:32.298Z,91.30
2018-12-05T04:09:04.968Z,91.50
2018-12-05T04:11:35.838Z,91.40
2018-12-05T04:14:06.399Z,91.40
2018-12-05T04:16:37.000Z,91.40
2018-12-05T04:19:07.501Z,91.70
2018-12-05T04:21:38.221Z,91.90
2018-12-05T04:24:08.834Z,92.00
2018-12-05T04:26:39.584Z,92.20
2018-12-05T04:29:10.446Z,92.30
2018-12-05T04:31:40.943Z,92.10
2018-12-05T04:34:11.595Z,92.30
2018-12-05T04:36:43.416Z,92.30
2018-12-05T04:39:13.973Z,92.50
2018-12-05T04:41:44.401Z,92.40
2018-12-05T04:44:16.040Z,92.50
2018-12-05T04:46:46.430Z,92.20
2018-12-05T04:49:17.440Z,92.10
2018-12-05T04:51:48.081Z,91.40
2018-12-05T04:54:20.094Z,91.70
2018-12-05T04:56:50.649Z,91.90
2018-12-05T04:59:21.280Z,92.20
2018-12-05T05:01:52.497Z,92.60
2018-12-05T05:04:24.554Z,92.20
2018-12-05T05:06:56.240Z,92.20
2018-12-05T05:09:28.516Z,92.20
2018-12-05T05:11:59.914Z,92.00
2018-12-05T05:14:30.539Z,92.00
2018-12-05T05:17:01.846Z,91.90
2018-12-05T05:19:33.232Z,92.00
2018-12-05T05:22:05.181Z,91.90
2018-12-05T05:24:36.972Z,91.60
2018-12-05T05:27:08.067Z,91.30
2018-12-05T05:29:39.100Z,91.30
2018-12-05T05:32:11.829Z,91.00
2018-12-05T05:34:43.956Z,91.30
2018-12-05T05:37:26.475Z,91.50
2018-12-05T05:39:59.379Z,91.50
2018-12-05T05:42:31.950Z,92.10
2018-12-05T05:45:03.919Z,91.50
2018-12-05T05:47:35.339Z,91.50
2018-12-05T05:50:07.091Z,91.90
2018-12-05T05:52:38.333Z,91.40
2018-12-05T05:55:09.607Z,91.10
2018-12-05T05:57:42.059Z,91.10
2018-12-05T06:00:13.471Z,90.90
2018-12-05T06:02:44.620Z,90.70
2018-12-05T06:05:15.241Z,90.60
2018-12-05T06:07:46.846Z,90.40
2018-12-05T06:10:18.184Z,90.20
2018-12-05T06:12:53.434Z,90.30
2018-12-05T06:15:24.333Z,90.50
2018-12-05T06:17:54.781Z,90.30
2018-12-05T06:20:25.822Z,90.40
2018-12-05T06:22:56.662Z,90.40
2018-12-05T06:25:38.779Z,90.30
2018-12-05T06:28:10.318Z,90.50
2018-12-05T06:30:40.747Z,90.40
2018-12-05T06:33:10.956Z,90.10
2018-12-05T06:35:41.486Z,89.80
2018-12-05T06:38:14.495Z,90.00
2018-12-05T06:40:49.227Z,89.60
2018-12-05T06:43:26.318Z,90.30
2018-12-05T06:46:04.832Z,90.60
2018-12-05T06:48:37.606Z,91.00
2018-12-05T06:51:07.961Z,91.10
2018-12-05T06:53:38.769Z,90.50
2018-12-05T06:56:09.528Z,90.60
2018-12-05T06:58:40.122Z,90.60
2018-12-05T07:01:11.687Z,90.70
2018-12-05T07:03:42.013Z,90.30
2018-12-05T07:06:13.039Z,90.50
2018-12-05T07:08:43.441Z,90.20
2018-12-05T07:11:13.859Z,90.10
2018-12-05T07:13:44.224Z,89.70
2018-12-05T07:16:14.677Z,90.20
2018-12-05T07:18:45.181Z,90.20
2018-12-05T07:21:15.750Z,90.10
2018-12-05T07:23:46.157Z,89.80
2018-12-05T07:26:17.186Z,89.20
2018-12-05T07:31:38.106Z,89.30
2018-12-05T07:34:20.272Z,89.30
2018-12-05T07:36:53.809Z,89.30
2018-12-05T07:39:26.285Z,90.10
2018-12-05T07:41:59.068Z,90.00
2018-12-05T07:44:31.227Z,90.10
2018-12-05T07:47:01.734Z,90.00
2018-12-05T07:49:32.219Z,89.50
2018-12-05T07:52:04.639Z,89.90
2018-12-05T07:54:35.287Z,89.30
2018-12-05T07:57:07.758Z,89.20
2018-12-05T07:59:38.416Z,87.50
2018-12-05T08:02:09.715Z,87.80
2018-12-05T08:04:42.695Z,87.40
2018-12-05T08:07:14.730Z,87.70
2018-12-05T08:09:46.190Z,87.70
2018-12-05T08:12:18.089Z,86.80
2018-12-05T08:14:48.835Z,86.40
2018-12-05T08:17:19.963Z,86.30
2018-12-05T08:19:51.115Z,85.00
2018-12-05T08:22:22.191Z,85.10
2018-12-05T08:24:54.154Z,84.20
2018-12-05T08:27:26.425Z,84.70
2018-12-05T08:30:00.634Z,84.50
2018-12-05T08:32:40.994Z,85.20
2018-12-05T08:35:20.009Z,86.40
2018-12-05T08:41:21.500Z,84.30
2018-12-05T08:43:54.201Z,83.50
2018-12-05T08:49:21.953Z,83.30
2018-12-05T08:51:53.917Z,83.90
2018-12-05T08:54:25.474Z,84.40
2018-12-05T08:56:57.372Z,84.30
2018-12-05T08:59:29.002Z,84.10
2018-12-05T09:02:00.654Z,84.30
2018-12-05T09:04:32.176Z,84.90
2018-12-05T09:07:03.023Z,85.30
2018-12-05T09:09:34.057Z,85.30
2018-12-05T09:12:05.545Z,83.70
2018-12-05T09:14:36.903Z,83.30
2018-12-05T09:17:07.398Z,83.80
2018-12-05T09:19:39.301Z,83.30
2018-12-05T09:22:10.945Z,82.80
2018-12-05T09:24:41.662Z,83.70
2018-12-05T09:27:12.361Z,83.20
2018-12-05T09:29:43.825Z,83.00
2018-12-05T09:32:14.591Z,81.20
2018-12-05T09:34:46.287Z,81.10
2018-12-05T09:37:17.285Z,81.70
2018-12-05T09:39:49.760Z,81.20
2018-12-05T09:42:23.761Z,79.40
2018-12-05T09:44:59.223Z,78.80
2018-12-05T09:47:32.365Z,78.40
2018-12-05T09:50:09.167Z,78.80
2018-12-05T09:52:46.467Z,78.50
2018-12-05T09:55:23.902Z,77.30
2018-12-05T09:57:55.483Z,76.80
2018-12-05T20:45:12.534Z,86.70
2018-12-05T20:47:43.197Z,86.00
2018-12-05T20:50:14.243Z,86.20
2018-12-05T20:52:47.799Z,85.80
2018-12-05T20:55:19.340Z,85.60
2018-12-05T21:00:44.568Z,85.90
2018-12-05T21:03:15.949Z,85.70
2018-12-05T21:05:50.262Z,85.30
2018-12-05T21:08:22.043Z,85.30
2018-12-05T21:10:52.548Z,85.00
2018-12-05T21:13:23.362Z,85.20
2018-12-05T21:15:57.170Z,84.70
2018-12-05T21:59:36.417Z,87.40
2018-12-05T22:02:07.991Z,87.90
2018-12-05T23:19:53.127Z,89.80
2018-12-05T23:22:23.859Z,89.80
2018-12-05T23:25:01.058Z,89.90
2018-12-05T23:27:31.627Z,89.00
2018-12-05T23:30:03.227Z,88.30
2018-12-05T23:32:35.043Z,87.90
2018-12-05T23:35:05.950Z,88.10
2018-12-05T23:37:36.710Z,89.80
2018-12-05T23:40:07.586Z,89.80
2018-12-05T23:42:38.386Z,90.30
2018-12-05T23:45:10.999Z,90.70
2018-12-05T23:47:41.448Z,91.20
2018-12-05T23:50:12.040Z,91.50
2018-12-05T23:52:42.924Z,92.00
2018-12-05T23:55:15.535Z,92.20
2018-12-05T23:57:46.291Z,92.60
